Carlton, Washington
Current Conditions -  °F | °C
As of 8:53 PM on Friday 28 Nov 2014 (Local Time) from KOMK Reporting Station
Broken Clouds Broken Clouds  
Wind Chill: 14°   Ceiling: 7500
Heat Index: 26°   Visibility: 10mi
Dew Point: 15°   Wind: 16mph
Humidity: 63%   Direction: 360°N
Pressure: 29.38"   Gusts: 30mph
Location:  48.25°N, 120.12°W
Report Text: KOMK 290453Z AUTO 36014G26KT 10SM BKN075 M03/M09 A2938 RMK AO2 PK WND 02028/0359 SLP959 T10331094
Loading
Personal Weather Stations






























Interactive Weather Map New forecast layout! Learn more

10-Day Weather Forecast

Advertisements
Track Severe Weather on mobile